Time;durP1;ratioP1;P1;durP2;ratioP2;P2;SDS_P1;SDS_P2;PMS_P1;PMS_P2;Temp;Humidity;BMP_temperature;BMP_pressure;BME280_temperature;BME280_humidity;BME280_pressure;Samples;Min_cycle;Max_cycle;Signal;HPM_P1;HPM_P2
2022/09/26 00:01:40;;;;;;;6.07;2.47;;;12.30;99.90;;;;;;5115775;28;20192;-86
2022/09/26 00:04:18;;;;;;;6.80;2.92;;;12.30;99.90;;;;;;5115469;27;20440;-87
2022/09/26 00:06:47;;;;;;;5.43;2.83;;;12.20;99.90;;;;;;5115764;28;20206;-86
2022/09/26 00:09:16;;;;;;;6.53;2.80;;;12.20;99.90;;;;;;5116166;28;20208;-86
2022/09/26 00:11:45;;;;;;;7.07;2.93;;;12.30;99.90;;;;;;5115818;28;20543;-86
2022/09/26 00:14:19;;;;;;;6.03;2.70;;;12.30;99.90;;;;;;5115944;28;20198;-86
2022/09/26 00:16:52;;;;;;;3.77;2.97;;;12.30;99.90;;;;;;5115828;28;20214;-86
2022/09/26 00:19:21;;;;;;;5.63;2.53;;;12.30;99.90;;;;;;5115739;28;20207;-86
2022/09/26 00:21:54;;;;;;;5.53;3.00;;;12.30;99.90;;;;;;5115600;28;20199;-86
2022/09/26 00:24:22;;;;;;;4.80;2.67;;;12.20;99.90;;;;;;5115478;28;20707;-87
2022/09/26 00:26:51;;;;;;;4.50;2.97;;;12.20;99.90;;;;;;5115576;28;20194;-87
2022/09/26 00:29:19;;;;;;;4.17;3.00;;;12.10;99.90;;;;;;5115573;28;20198;-87
2022/09/26 00:31:48;;;;;;;5.07;2.80;;;12.20;99.90;;;;;;5115217;28;20210;-86
2022/09/26 00:34:18;;;;;;;8.40;3.17;;;12.10;99.90;;;;;;5115455;28;20211;-86
2022/09/26 00:36:46;;;;;;;5.83;3.03;;;12.10;99.90;;;;;;5115119;28;20206;-87
2022/09/26 00:39:15;;;;;;;5.73;2.57;;;12.10;99.90;;;;;;5115000;28;20654;-86
2022/09/26 00:41:45;;;;;;;5.20;2.43;;;12.10;99.90;;;;;;5115359;28;20202;-87
2022/09/26 00:44:40;;;;;;;3.53;2.60;;;12.10;99.90;;;;;;5115069;28;20624;-86
2022/09/26 00:47:26;;;;;;;4.83;2.50;;;12.10;99.90;;;;;;5114880;28;20211;-86
2022/09/26 00:49:59;;;;;;;5.53;2.33;;;12.20;99.90;;;;;;5114648;28;20649;-87
2022/09/26 00:52:31;;;;;;;4.30;2.13;;;12.20;99.90;;;;;;5127954;27;20213;-86
2022/09/26 00:55:07;;;;;;;2.40;2.20;;;12.20;99.90;;;;;;5114156;28;20258;-86
2022/09/26 00:57:50;;;;;;;5.43;2.70;;;12.20;99.90;;;;;;5113609;28;20211;-86
2022/09/26 01:00:22;;;;;;;3.70;2.40;;;12.20;99.90;;;;;;5114826;28;20665;-86
2022/09/26 01:02:52;;;;;;;3.60;2.63;;;12.10;99.90;;;;;;5114904;28;20286;-87
2022/09/26 01:05:23;;;;;;;3.37;2.20;;;12.20;99.90;;;;;;5114529;28;20574;-87
2022/09/26 01:07:53;;;;;;;7.43;2.60;;;12.10;99.90;;;;;;5114855;28;20675;-86
2022/09/26 01:10:23;;;;;;;6.47;2.13;;;12.10;99.90;;;;;;5115166;28;20205;-87
2022/09/26 01:12:51;;;;;;;3.80;2.30;;;12.10;99.90;;;;;;5114676;28;20209;-86
2022/09/26 01:15:20;;;;;;;5.00;2.50;;;12.10;99.90;;;;;;5114755;28;20639;-86
2022/09/26 01:17:52;;;;;;;3.37;2.53;;;12.10;99.90;;;;;;5114779;28;20535;-86
2022/09/26 01:20:30;;;;;;;4.03;2.30;;;12.10;99.90;;;;;;5114736;28;20191;-86
2022/09/26 01:23:36;;;;;;;4.43;2.43;;;12.00;99.90;;;;;;5114689;28;20238;-86
2022/09/26 01:26:28;;;;;;;8.63;2.90;;;12.10;99.90;;;;;;5113118;28;20230;-86
2022/09/26 01:29:15;;;;;;;5.27;2.83;;;12.10;99.90;;;;;;5114251;28;20224;-86
2022/09/26 01:34:47;;;;;;;6.33;3.33;;;12.10;99.90;;;;;;5114089;28;20198;-86
2022/09/26 01:37:29;;;;;;;5.87;3.40;;;12.10;99.90;;;;;;5114529;28;20191;-85
2022/09/26 01:40:07;;;;;;;6.13;4.17;;;12.20;99.90;;;;;;5114104;28;20665;-85
2022/09/26 01:42:52;;;;;;;8.27;4.00;;;12.10;99.90;;;;;;5114559;28;20189;-86
2022/09/26 01:45:26;;;;;;;7.20;4.20;;;12.00;99.90;;;;;;5114362;28;20231;-86
2022/09/26 01:48:03;;;;;;;8.68;4.95;;;11.90;99.90;;;;;;5112947;28;20494;-85
2022/09/26 01:50:51;;;;;;;8.43;4.60;;;11.90;99.90;;;;;;5114519;28;20210;-86
2022/09/26 01:53:25;;;;;;;5.80;4.43;;;11.90;99.90;;;;;;5114144;28;20192;-86
2022/09/26 01:55:58;;;;;;;6.87;4.30;;;11.90;99.90;;;;;;5113019;28;20229;-87
2022/09/26 01:58:34;;;;;;;7.40;4.47;;;11.90;99.90;;;;;;5114155;28;20684;-86
2022/09/26 02:01:10;;;;;;;7.73;4.97;;;11.80;99.90;;;;;;5113060;28;20209;-86
2022/09/26 02:03:43;;;;;;;9.10;4.40;;;11.70;99.90;;;;;;5113857;28;20223;-86
2022/09/26 02:06:20;;;;;;;7.33;4.00;;;11.70;99.90;;;;;;5118228;28;20217;-86
2022/09/26 02:08:49;;;;;;;6.70;4.17;;;11.70;99.90;;;;;;5118425;28;20205;-86
2022/09/26 02:11:17;;;;;;;9.50;4.67;;;11.70;99.90;;;;;;5118158;28;20209;-86
2022/09/26 02:13:50;;;;;;;10.63;4.90;;;11.70;99.90;;;;;;5117777;28;20437;-87
2022/09/26 02:16:21;;;;;;;5.67;4.20;;;11.70;99.90;;;;;;5117999;28;20205;-86
2022/09/26 02:18:54;;;;;;;7.63;3.73;;;11.70;99.90;;;;;;5118126;28;20189;-85
2022/09/26 02:21:27;;;;;;;5.60;3.53;;;11.70;99.90;;;;;;5118271;28;20197;-86
2022/09/26 02:24:01;;;;;;;6.03;3.60;;;11.70;99.90;;;;;;5117825;28;20207;-86
2022/09/26 02:26:34;;;;;;;5.37;3.57;;;11.80;99.90;;;;;;5117967;28;20233;-86
2022/09/26 02:29:08;;;;;;;7.17;2.93;;;11.70;99.90;;;;;;5117850;28;20202;-86
2022/09/26 02:31:40;;;;;;;3.80;3.10;;;11.80;99.90;;;;;;5117726;28;20198;-87
2022/09/26 02:34:14;;;;;;;6.90;3.57;;;11.80;99.90;;;;;;5117783;28;20258;-87
2022/09/26 02:36:43;;;;;;;5.00;2.97;;;11.80;99.90;;;;;;5117881;28;20210;-86
2022/09/26 02:39:13;;;;;;;5.95;3.10;;;11.80;99.90;;;;;;5117371;28;20428;-86
2022/09/26 02:41:49;;;;;;;5.60;2.90;;;11.80;99.90;;;;;;5117751;28;20195;-86
2022/09/26 02:44:39;;;;;;;6.87;3.17;;;11.80;99.90;;;;;;5117291;28;20666;-86
2022/09/26 02:47:31;;;;;;;6.33;3.20;;;11.90;99.90;;;;;;5117204;28;20208;-86
2022/09/26 02:50:24;;;;;;;5.90;2.97;;;11.90;99.90;;;;;;5117462;28;20191;-86
2022/09/26 02:53:04;;;;;;;5.07;3.13;;;11.90;99.90;;;;;;5117644;28;20225;-86
2022/09/26 02:55:45;;;;;;;6.93;3.00;;;11.70;99.90;;;;;;5117173;28;20565;-86
2022/09/26 02:58:21;;;;;;;6.73;2.87;;;11.80;99.90;;;;;;5117285;28;20213;-86
2022/09/26 03:00:59;;;;;;;5.00;2.63;;;11.80;99.90;;;;;;5117035;28;20670;-86
2022/09/26 03:03:33;;;;;;;7.03;3.50;;;11.80;99.90;;;;;;5117305;28;20252;-86
2022/09/26 03:06:06;;;;;;;9.23;2.77;;;11.80;99.90;;;;;;5116822;28;20516;-86
2022/09/26 03:08:37;;;;;;;4.53;2.30;;;11.80;99.90;;;;;;5116887;28;20198;-86
2022/09/26 03:11:09;;;;;;;8.40;3.40;;;11.70;99.90;;;;;;5117146;28;20553;-86
2022/09/26 03:13:43;;;;;;;3.17;2.50;;;11.70;99.90;;;;;;5117380;28;20194;-87
2022/09/26 03:16:13;;;;;;;3.77;2.47;;;11.70;99.90;;;;;;5116198;28;20203;-87
2022/09/26 03:18:50;;;;;;;7.17;2.80;;;11.70;99.90;;;;;;5116834;28;20597;-87
2022/09/26 03:21:20;;;;;;;5.43;2.53;;;11.70;99.90;;;;;;5116859;27;20261;-87
2022/09/26 03:23:49;;;;;;;3.73;2.23;;;11.70;99.90;;;;;;5116823;28;20206;-87
2022/09/26 03:26:19;;;;;;;9.43;2.33;;;11.70;99.90;;;;;;5116550;28;20240;-87
2022/09/26 03:28:47;;;;;;;6.83;2.50;;;11.70;99.90;;;;;;5116744;28;20202;-87
2022/09/26 03:31:14;;;;;;;4.30;2.40;;;11.80;99.90;;;;;;5115326;28;20212;-87
2022/09/26 03:33:40;;;;;;;6.50;2.53;;;11.80;99.90;;;;;;5116720;28;20206;-87
2022/09/26 03:36:09;;;;;;;3.90;2.53;;;11.70;99.90;;;;;;5116421;28;20216;-87
2022/09/26 03:38:38;;;;;;;4.90;2.67;;;11.70;99.90;;;;;;5116421;28;20202;-87
2022/09/26 03:41:08;;;;;;;5.80;2.53;;;11.70;99.90;;;;;;5116486;28;20201;-87
2022/09/26 03:43:36;;;;;;;3.73;2.37;;;11.70;99.90;;;;;;5116331;28;20213;-87
2022/09/26 03:46:04;;;;;;;3.97;2.60;;;11.70;99.90;;;;;;5115763;28;20587;-88
2022/09/26 03:48:31;;;;;;;6.07;2.43;;;11.60;99.90;;;;;;5116206;28;20206;-87
2022/09/26 03:51:02;;;;;;;6.37;2.77;;;11.60;99.90;;;;;;5115997;28;20218;-87
2022/09/26 03:53:32;;;;;;;5.47;2.83;;;11.60;99.90;;;;;;5116166;28;20201;-87
2022/09/26 03:56:05;;;;;;;4.43;2.10;;;11.60;99.90;;;;;;5115684;28;20249;-88
2022/09/26 03:58:32;;;;;;;6.43;2.63;;;11.60;99.90;;;;;;5115548;28;20212;-88
2022/09/26 04:01:03;;;;;;;8.33;2.57;;;11.60;99.90;;;;;;5116048;28;20211;-87
2022/09/26 04:03:32;;;;;;;3.87;2.53;;;11.60;99.90;;;;;;5115788;28;20236;-87
2022/09/26 04:06:07;;;;;;;5.27;2.30;;;11.70;99.90;;;;;;5115941;28;20229;-87
2022/09/26 04:08:34;;;;;;;5.43;2.47;;;11.70;99.90;;;;;;5116472;28;20200;-88
2022/09/26 04:11:02;;;;;;;5.37;2.07;;;11.70;99.90;;;;;;5115969;28;20305;-87
2022/09/26 04:13:32;;;;;;;8.67;2.60;;;11.70;99.90;;;;;;5115716;28;20189;-87
2022/09/26 04:16:01;;;;;;;7.10;3.00;;;11.60;99.90;;;;;;5115688;28;20208;-88
2022/09/26 04:18:30;;;;;;;3.00;2.67;;;11.60;99.90;;;;;;5116110;28;20201;-87
2022/09/26 04:20:58;;;;;;;5.23;2.60;;;11.60;99.90;;;;;;5115584;28;20216;-87
2022/09/26 04:23:27;;;;;;;3.73;2.37;;;11.50;99.90;;;;;;5115929;28;20201;-87
2022/09/26 04:25:55;;;;;;;7.73;2.87;;;11.50;99.90;;;;;;5115214;28;20248;-87
2022/09/26 04:28:27;;;;;;;6.00;2.60;;;11.60;99.90;;;;;;5114479;28;20208;-87
2022/09/26 04:30:58;;;;;;;6.30;2.60;;;11.60;99.90;;;;;;5115163;28;20205;-87
2022/09/26 04:33:28;;;;;;;5.43;2.40;;;11.70;99.90;;;;;;5115479;28;20190;-88
2022/09/26 04:35:59;;;;;;;8.43;2.20;;;11.60;99.90;;;;;;5115537;28;20200;-87
2022/09/26 04:38:32;;;;;;;4.97;2.40;;;11.70;99.90;;;;;;5115187;28;20210;-88
2022/09/26 04:41:04;;;;;;;4.13;2.47;;;11.80;99.90;;;;;;5115184;28;20218;-87
2022/09/26 04:43:34;;;;;;;2.80;2.37;;;11.80;99.90;;;;;;5115383;28;20212;-88
2022/09/26 04:46:09;;;;;;;4.20;2.20;;;11.70;99.90;;;;;;5115323;28;20243;-88
2022/09/26 04:48:37;;;;;;;5.20;2.40;;;11.70;99.90;;;;;;5115723;28;20200;-87
2022/09/26 04:51:06;;;;;;;8.90;2.27;;;11.70;99.90;;;;;;5115334;28;20220;-87
2022/09/26 04:53:33;;;;;;;2.93;2.50;;;11.70;99.90;;;;;;5115122;28;20631;-88
2022/09/26 04:56:01;;;;;;;7.17;2.93;;;11.70;99.90;;;;;;5114913;28;20221;-89
2022/09/26 04:58:31;;;;;;;3.03;2.07;;;11.80;99.90;;;;;;5126478;27;20196;-88
2022/09/26 05:01:03;;;;;;;3.43;1.70;;;11.80;99.90;;;;;;5129337;27;20737;-89
2022/09/26 05:03:32;;;;;;;2.87;1.90;;;11.90;99.90;;;;;;5134949;27;20200;-88
2022/09/26 05:05:59;;;;;;;4.47;2.37;;;11.80;99.90;;;;;;5134183;27;20229;-89
2022/09/26 05:08:27;;;;;;;6.03;2.23;;;11.80;99.90;;;;;;5134515;27;20231;-89
2022/09/26 05:10:55;;;;;;;3.87;1.73;;;11.90;99.90;;;;;;5135370;27;20205;-87
2022/09/26 05:13:22;;;;;;;4.50;2.10;;;11.90;99.90;;;;;;5135563;27;20203;-88
2022/09/26 05:15:52;;;;;;;3.80;1.90;;;11.90;99.90;;;;;;5135681;27;20207;-88
2022/09/26 05:18:20;;;;;;;7.37;1.93;;;11.90;99.90;;;;;;5134203;27;20268;-87
2022/09/26 05:20:49;;;;;;;5.00;2.10;;;11.80;99.90;;;;;;5135454;27;20209;-88
2022/09/26 05:26:18;;;;;;;3.17;1.87;;;11.80;99.90;;;;;;5135229;27;20233;-88
2022/09/26 05:26:21;;;;;;;3.83;1.60;;;11.80;99.90;;;;;;5135017;27;20314;-88
2022/09/26 05:28:55;;;;;;;6.73;2.03;;;11.90;99.90;;;;;;5135472;27;20259;-88
2022/09/26 05:31:24;;;;;;;6.47;1.97;;;11.80;99.90;;;;;;5135391;27;20197;-88
2022/09/26 05:33:52;;;;;;;3.87;2.00;;;11.80;99.90;;;;;;5135465;27;20190;-88
2022/09/26 05:36:23;;;;;;;5.17;2.23;;;11.80;99.90;;;;;;5135824;27;20280;-87
2022/09/26 05:38:56;;;;;;;5.23;1.50;;;11.80;99.90;;;;;;5136079;27;20196;-87
2022/09/26 05:41:22;;;;;;;3.20;1.60;;;11.80;99.90;;;;;;5136436;27;20196;-89
2022/09/26 05:43:50;;;;;;;6.43;2.20;;;11.70;99.90;;;;;;5135592;27;20201;-87
2022/09/26 05:46:20;;;;;;;4.30;1.73;;;11.80;99.90;;;;;;5135632;27;20443;-88
2022/09/26 05:48:48;;;;;;;4.20;1.87;;;11.80;99.90;;;;;;5137053;27;20204;-87
2022/09/26 05:51:16;;;;;;;6.70;1.77;;;11.80;99.90;;;;;;5139838;27;20186;-87
2022/09/26 05:53:46;;;;;;;3.33;1.60;;;11.90;99.90;;;;;;5134325;28;20197;-88
2022/09/26 05:56:15;;;;;;;3.83;1.90;;;11.90;99.90;;;;;;5131221;28;20195;-88
2022/09/26 05:58:42;;;;;;;6.83;2.07;;;11.90;99.90;;;;;;5140165;28;20200;-87
2022/09/26 06:01:11;;;;;;;1.73;1.53;;;12.00;99.90;;;;;;5133646;28;20200;-91
2022/09/26 06:03:41;;;;;;;8.13;2.20;;;12.00;99.90;;;;;;5127905;28;20193;-89
2022/09/26 06:06:10;;;;;;;3.60;1.80;;;12.00;99.90;;;;;;5123323;28;20213;-88
2022/09/26 06:08:38;;;;;;;4.43;1.80;;;12.00;99.90;;;;;;5120039;28;20703;-90
2022/09/26 06:11:15;;;;;;;3.83;1.73;;;11.90;99.90;;;;;;5114834;28;20209;-90
2022/09/26 06:13:45;;;;;;;3.78;2.17;;;12.00;99.90;;;;;;5114287;28;20428;-91
2022/09/26 06:16:17;;;;;;;3.67;1.73;;;12.10;99.90;;;;;;5120620;28;20205;-90
2022/09/26 06:18:49;;;;;;;2.17;1.70;;;12.10;99.90;;;;;;5118333;28;20258;-90
2022/09/26 06:21:20;;;;;;;4.73;2.83;;;12.00;99.90;;;;;;5114461;28;20206;-91
2022/09/26 06:24:01;;;;;;;3.90;1.53;;;12.10;99.90;;;;;;5114624;28;20205;-91
2022/09/26 06:26:39;;;;;;;3.10;1.53;;;12.00;99.90;;;;;;5117283;28;20232;-92
2022/09/26 06:29:12;;;;;;;3.70;1.60;;;12.10;99.90;;;;;;5114512;28;20210;-91
2022/09/26 06:31:46;;;;;;;3.23;1.83;;;12.10;99.90;;;;;;5114289;28;20190;-88
2022/09/26 06:34:19;;;;;;;5.60;1.40;;;12.10;99.90;;;;;;5118924;28;20577;-87
2022/09/26 06:36:52;;;;;;;4.03;1.70;;;12.10;99.90;;;;;;5123574;28;20191;-88
2022/09/26 06:39:19;;;;;;;1.97;1.30;;;12.10;99.90;;;;;;5114438;28;20202;-90
2022/09/26 06:41:54;;;;;;;1.60;1.50;;;12.00;99.90;;;;;;5114352;28;20198;-89
2022/09/26 06:44:23;;;;;;;3.33;1.70;;;12.10;99.90;;;;;;5114220;28;20190;-89
2022/09/26 06:46:50;;;;;;;3.37;1.40;;;12.10;99.90;;;;;;5114196;28;20237;-87
2022/09/26 06:49:17;;;;;;;5.97;2.30;;;12.10;99.90;;;;;;5113345;28;20189;-86
2022/09/26 06:51:47;;;;;;;2.70;2.00;;;12.10;99.90;;;;;;5116187;27;20201;-85
2022/09/26 06:54:14;;;;;;;4.70;1.93;;;12.20;99.90;;;;;;5135876;27;20207;-85
2022/09/26 06:56:41;;;;;;;3.70;1.50;;;12.20;99.90;;;;;;5116116;28;20568;-86
2022/09/26 06:59:09;;;;;;;2.73;1.70;;;12.20;99.90;;;;;;5116264;28;20202;-86
2022/09/26 07:01:36;;;;;;;4.70;1.90;;;12.20;99.90;;;;;;5116163;28;20201;-86
2022/09/26 07:04:03;;;;;;;4.67;1.60;;;12.20;99.90;;;;;;5116600;28;20217;-87
2022/09/26 07:06:30;;;;;;;2.13;1.73;;;12.20;99.90;;;;;;5116427;27;20201;-87
2022/09/26 07:08:57;;;;;;;8.63;2.20;;;12.20;99.90;;;;;;5115386;28;20237;-88
2022/09/26 07:11:27;;;;;;;3.77;1.70;;;12.30;99.90;;;;;;5116723;28;20656;-86
2022/09/26 07:13:54;;;;;;;3.57;1.73;;;12.30;99.90;;;;;;5116768;28;20252;-86
2022/09/26 07:16:23;;;;;;;4.63;1.87;;;12.30;99.90;;;;;;5116625;28;20189;-87
2022/09/26 07:18:49;;;;;;;1.87;1.67;;;12.30;99.90;;;;;;5116803;28;20649;-86
2022/09/26 07:21:19;;;;;;;4.93;1.90;;;12.30;99.90;;;;;;5115990;28;20196;-85
2022/09/26 07:23:46;;;;;;;3.13;1.90;;;12.40;99.90;;;;;;5116346;28;20209;-87
2022/09/26 07:26:13;;;;;;;5.40;1.63;;;12.40;99.90;;;;;;5116215;28;20228;-87
2022/09/26 07:28:40;;;;;;;3.87;1.87;;;12.40;99.90;;;;;;5116397;28;20212;-87
2022/09/26 07:31:07;;;;;;;5.57;1.90;;;12.50;99.90;;;;;;5116383;28;20213;-86
2022/09/26 07:33:38;;;;;;;4.77;1.53;;;12.50;99.90;;;;;;5116168;28;20215;-86
2022/09/26 07:36:05;;;;;;;5.90;2.43;;;12.60;99.90;;;;;;5128008;27;20557;-87
2022/09/26 07:38:32;;;;;;;5.73;2.57;;;12.70;99.90;;;;;;5126100;27;20446;-85
2022/09/26 07:41:00;;;;;;;4.63;1.80;;;12.60;99.90;;;;;;5123872;27;20669;-88
2022/09/26 07:43:27;;;;;;;4.07;1.67;;;12.70;99.90;;;;;;5121810;27;20277;-88
2022/09/26 07:51:23;;;;;;;6.47;1.87;;;12.80;99.90;;;;;;5128607;27;20717;-89
2022/09/26 07:53:50;;;;;;;3.87;1.40;;;12.80;99.90;;;;;;5135709;27;20210;-90
2022/09/26 07:56:17;;;;;;;8.07;2.30;;;12.80;99.90;;;;;;5136377;27;20640;-88
2022/09/26 07:58:47;;;;;;;6.90;1.83;;;12.80;99.90;;;;;;5136572;27;20206;-87
2022/09/26 08:01:15;;;;;;;3.33;1.67;;;12.80;99.90;;;;;;5127026;27;20222;-87
2022/09/26 08:03:46;;;;;;;6.17;1.90;;;12.80;99.90;;;;;;5125027;27;20203;-87
2022/09/26 08:06:18;;;;;;;5.80;2.20;;;12.80;99.90;;;;;;5120341;27;20310;-87
2022/09/26 08:08:46;;;;;;;5.33;1.73;;;12.70;99.90;;;;;;5115761;28;20227;-88
2022/09/26 08:11:14;;;;;;;4.07;1.83;;;12.80;99.90;;;;;;5115194;28;20207;-87
2022/09/26 08:13:42;;;;;;;6.77;1.97;;;12.80;99.90;;;;;;5115384;28;20232;-87
2022/09/26 08:16:13;;;;;;;4.03;1.80;;;12.80;99.90;;;;;;5124283;27;20203;-87
2022/09/26 08:18:40;;;;;;;7.27;1.97;;;12.70;99.90;;;;;;5135572;27;20231;-89
2022/09/26 08:21:10;;;;;;;6.73;1.90;;;12.80;99.90;;;;;;5136147;27;20653;-91
2022/09/26 08:23:38;;;;;;;4.90;1.83;;;12.80;99.90;;;;;;5136865;27;20577;-90
2022/09/26 08:26:07;;;;;;;2.63;1.73;;;12.80;99.90;;;;;;5136283;27;20195;-90
2022/09/26 08:28:41;;;;;;;8.23;2.13;;;12.80;99.90;;;;;;5136745;27;20207;-89
2022/09/26 08:31:11;;;;;;;10.80;2.40;;;12.90;99.90;;;;;;5136405;27;20193;-89
2022/09/26 08:33:39;;;;;;;2.77;1.67;;;13.00;99.90;;;;;;5135975;27;20203;-91
2022/09/26 08:36:06;;;;;;;4.63;1.80;;;13.10;99.90;;;;;;5136153;27;20202;-90
2022/09/26 08:38:35;;;;;;;3.57;1.87;;;13.00;99.90;;;;;;5134517;27;20204;-87
2022/09/26 08:41:15;;;;;;;6.50;2.07;;;13.00;99.90;;;;;;5135280;27;20275;-87
2022/09/26 08:43:57;;;;;;;5.57;1.93;;;13.00;99.90;;;;;;5135490;27;20702;-89
2022/09/26 08:46:45;;;;;;;3.37;1.90;;;12.80;99.90;;;;;;5135476;27;20297;-89
2022/09/26 08:49:38;;;;;;;6.27;2.10;;;12.70;99.90;;;;;;5135542;27;20211;-89
2022/09/26 08:52:15;;;;;;;3.23;2.30;;;12.80;99.90;;;;;;5129932;27;20685;-89
2022/09/26 08:54:46;;;;;;;4.87;2.50;;;12.70;99.90;;;;;;5133775;27;20199;-89
2022/09/26 08:57:24;;;;;;;3.80;2.10;;;12.60;99.90;;;;;;5135650;27;20206;-91
2022/09/26 08:59:53;;;;;;;5.30;2.17;;;12.60;99.90;;;;;;5135455;27;20196;-88
2022/09/26 09:02:28;;;;;;;2.93;2.10;;;12.60;99.90;;;;;;5135228;27;20204;-93
2022/09/26 09:05:01;;;;;;;6.20;2.00;;;12.60;99.90;;;;;;5135590;27;20619;-91
2022/09/26 09:07:30;;;;;;;4.60;2.00;;;12.60;99.90;;;;;;5126355;27;20663;-89
2022/09/26 09:10:01;;;;;;;5.53;1.90;;;12.60;99.90;;;;;;5123620;27;20232;-90
2022/09/26 09:12:40;;;;;;;4.77;1.90;;;12.50;99.90;;;;;;5122438;27;20206;-88
2022/09/26 09:15:33;;;;;;;7.37;2.10;;;12.60;99.90;;;;;;5126441;27;20202;-88
2022/09/26 09:18:13;;;;;;;6.07;2.20;;;12.50;99.90;;;;;;5124533;27;20209;-90
2022/09/26 09:20:50;;;;;;;8.27;2.33;;;12.50;99.90;;;;;;5126565;27;20197;-87
2022/09/26 09:23:33;;;;;;;6.07;2.10;;;12.50;99.90;;;;;;5133052;27;20197;-90
2022/09/26 09:26:10;;;;;;;3.87;1.93;;;12.50;99.90;;;;;;5135092;27;20208;-90
2022/09/26 09:28:59;;;;;;;7.37;2.40;;;12.40;99.90;;;;;;5135357;27;20266;-92
2022/09/26 09:31:30;;;;;;;5.07;2.20;;;12.40;99.90;;;;;;5135045;27;20297;-92
2022/09/26 09:33:59;;;;;;;2.67;2.07;;;12.30;99.90;;;;;;5135243;27;20197;-92
2022/09/26 09:36:31;;;;;;;4.83;2.33;;;12.30;99.90;;;;;;5135257;27;20451;-92
2022/09/26 09:39:03;;;;;;;6.50;2.17;;;12.30;99.90;;;;;;5135515;27;20205;-92
2022/09/26 09:41:36;;;;;;;6.27;1.93;;;12.30;99.90;;;;;;5135278;27;20206;-93
2022/09/26 09:44:08;;;;;;;2.97;2.10;;;12.30;99.90;;;;;;5135048;27;20202;-92
2022/09/26 09:46:40;;;;;;;5.63;2.33;;;12.30;99.90;;;;;;5134861;28;20208;-90
2022/09/26 09:49:18;;;;;;;5.07;2.20;;;12.30;99.90;;;;;;5128611;27;20199;-91
2022/09/26 09:51:56;;;;;;;6.93;2.97;;;12.30;99.90;;;;;;5114315;28;20207;-91
2022/09/26 09:54:36;;;;;;;2.87;2.00;;;12.20;99.90;;;;;;5122207;28;20205;-92
2022/09/26 09:57:29;;;;;;;6.63;2.23;;;12.30;99.90;;;;;;5113824;28;20560;-90
2022/09/26 10:00:08;;;;;;;7.10;2.50;;;12.30;99.90;;;;;;5113699;28;20678;-89
2022/09/26 10:02:42;;;;;;;4.70;2.50;;;12.30;99.90;;;;;;5114757;28;20244;-89
2022/09/26 10:05:24;;;;;;;6.87;2.60;;;12.30;99.90;;;;;;5115391;28;20288;-89
2022/09/26 10:07:56;;;;;;;5.50;2.50;;;12.20;99.90;;;;;;5113462;28;20241;-89
2022/09/26 10:10:36;;;;;;;4.87;2.20;;;12.20;99.90;;;;;;5114090;28;20193;-88
2022/09/26 10:13:07;;;;;;;7.63;2.80;;;12.30;99.90;;;;;;5113291;28;20497;-90
2022/09/26 10:15:35;;;;;;;4.77;2.80;;;12.40;99.90;;;;;;5113746;28;20229;-87
2022/09/26 10:18:05;;;;;;;7.43;2.50;;;12.30;99.90;;;;;;5114059;28;20201;-87
2022/09/26 10:20:39;;;;;;;4.30;2.60;;;12.30;99.90;;;;;;5114095;28;20202;-87
2022/09/26 10:23:22;;;;;;;6.30;3.10;;;12.30;99.90;;;;;;5114160;28;20266;-89
2022/09/26 10:25:58;;;;;;;5.53;2.77;;;12.30;99.90;;;;;;5115937;28;20229;-88
2022/09/26 10:28:30;;;;;;;4.73;2.20;;;12.20;99.90;;;;;;5117512;28;20617;-87
2022/09/26 10:31:03;;;;;;;5.10;2.50;;;12.30;99.90;;;;;;5117193;28;20211;-88
2022/09/26 10:33:33;;;;;;;7.00;3.23;;;12.10;99.90;;;;;;5117575;28;20198;-90
2022/09/26 10:36:09;;;;;;;4.17;2.67;;;12.10;99.90;;;;;;5116851;28;20222;-88
2022/09/26 10:40:43;;;;;;;6.33;2.63;;;12.10;99.90;;;;;;5131285;27;20207;-90
2022/09/26 10:41:39;;;;;;;6.97;2.60;;;12.10;99.90;;;;;;5138502;27;20275;-89
2022/09/26 10:44:21;;;;;;;4.73;2.50;;;12.10;99.90;;;;;;5138000;27;20733;-88
2022/09/26 10:46:51;;;;;;;2.47;2.30;;;12.10;99.90;;;;;;5138108;27;20205;-88
2022/09/26 10:49:22;;;;;;;8.07;2.73;;;12.00;99.90;;;;;;5136947;27;20206;-88
2022/09/26 10:51:59;;;;;;;6.97;2.13;;;12.00;99.90;;;;;;5138148;27;20667;-89
2022/09/26 10:54:41;;;;;;;2.00;1.83;;;12.10;99.90;;;;;;5138509;27;20584;-90
2022/09/26 10:57:19;;;;;;;5.07;2.37;;;12.10;99.90;;;;;;5126788;27;20209;-90
2022/09/26 10:59:53;;;;;;;4.57;2.30;;;12.10;99.90;;;;;;5129511;27;20196;-88
2022/09/26 11:02:24;;;;;;;4.03;2.17;;;12.10;99.90;;;;;;5120590;27;20285;-89
2022/09/26 11:07:43;;;;;;;4.60;2.03;;;12.00;99.90;;;;;;5117309;28;20221;-90
2022/09/26 11:10:16;;;;;;;4.00;2.40;;;12.00;99.90;;;;;;5117618;28;20303;-89
2022/09/26 11:12:57;;;;;;;4.73;2.17;;;12.10;99.90;;;;;;5122936;27;20235;-90
2022/09/26 11:15:27;;;;;;;4.00;2.70;;;12.10;99.90;;;;;;5122989;27;20664;-89
2022/09/26 11:17:55;;;;;;;2.90;2.40;;;12.20;99.90;;;;;;5117244;28;20216;-89
2022/09/26 11:20:47;;;;;;;3.60;2.37;;;12.20;99.90;;;;;;5117056;28;20210;-88
2022/09/26 11:23:23;;;;;;;6.77;2.33;;;12.40;99.90;;;;;;5113377;28;20586;-89
2022/09/26 11:25:59;;;;;;;6.37;2.60;;;12.40;99.90;;;;;;5116257;28;20198;-89
2022/09/26 11:28:33;;;;;;;2.20;2.00;;;12.40;99.90;;;;;;5121800;27;20225;-90
2022/09/26 11:31:07;;;;;;;4.23;2.70;;;12.30;99.90;;;;;;5133025;27;20713;-90
2022/09/26 11:33:36;;;;;;;3.70;2.07;;;12.30;99.90;;;;;;5137555;27;20231;-90
2022/09/26 11:36:21;;;;;;;8.00;3.27;;;12.30;99.90;;;;;;5135605;27;20552;-90
2022/09/26 11:38:55;;;;;;;2.83;2.50;;;12.30;99.90;;;;;;5118949;27;20218;-89
2022/09/26 11:41:37;;;;;;;4.87;2.83;;;12.40;99.90;;;;;;5117140;28;20208;-88
2022/09/26 11:44:23;;;;;;;3.03;2.10;;;12.50;99.90;;;;;;5116661;28;20202;-88
2022/09/26 11:47:23;;;;;;;4.43;2.07;;;12.40;99.90;;;;;;5115900;27;20210;-90
2022/09/26 11:50:10;;;;;;;3.10;1.93;;;12.40;99.90;;;;;;5116606;28;20205;-90
2022/09/26 11:52:51;;;;;;;5.13;2.03;;;12.40;99.90;;;;;;5115858;28;20199;-89
2022/09/26 11:55:26;;;;;;;2.10;1.90;;;12.40;99.90;;;;;;5116130;28;20215;-91
2022/09/26 11:58:08;;;;;;;2.70;2.00;;;12.50;99.90;;;;;;5115692;28;20220;-87
2022/09/26 12:00:44;;;;;;;3.63;1.77;;;12.50;99.90;;;;;;5115798;28;20207;-88
2022/09/26 12:03:59;;;;;;;2.40;1.60;;;12.50;99.90;;;;;;5115753;28;20543;-87
2022/09/26 12:06:33;;;;;;;4.03;2.43;;;12.60;99.90;;;;;;5115729;28;20619;-88
2022/09/26 12:09:20;;;;;;;2.73;1.87;;;12.70;99.90;;;;;;5115484;28;20262;-87
2022/09/26 12:11:58;;;;;;;2.63;1.40;;;12.80;99.90;;;;;;5114711;28;20674;-87
2022/09/26 12:14:38;;;;;;;3.10;1.13;;;12.80;99.90;;;;;;5115305;28;20202;-86
2022/09/26 12:17:18;;;;;;;1.83;1.50;;;12.90;99.90;;;;;;5115384;28;20220;-86
2022/09/26 12:19:54;;;;;;;2.47;1.70;;;12.80;99.90;;;;;;5115673;28;20211;-87
2022/09/26 12:22:30;;;;;;;1.57;1.00;;;12.90;99.90;;;;;;5129041;27;20210;-87
2022/09/26 12:25:11;;;;;;;1.57;1.47;;;12.90;99.90;;;;;;5114577;28;20204;-86
2022/09/26 12:27:46;;;;;;;1.93;1.10;;;13.00;99.90;;;;;;5116174;27;20267;-87
2022/09/26 12:30:18;;;;;;;1.40;1.30;;;13.00;99.90;;;;;;5117760;27;20202;-88
2022/09/26 12:33:00;;;;;;;2.47;1.70;;;12.90;99.90;;;;;;5125031;27;20209;-88
2022/09/26 12:35:41;;;;;;;1.30;1.20;;;12.90;99.90;;;;;;5120977;27;20210;-88
2022/09/26 12:38:32;;;;;;;1.40;1.30;;;12.90;99.90;;;;;;5127354;27;20213;-87
2022/09/26 12:41:13;;;;;;;2.20;1.43;;;12.80;99.90;;;;;;5112143;27;20290;-87
2022/09/26 12:44:11;;;;;;;1.20;1.10;;;12.70;99.90;;;;;;5114078;28;20195;-86
2022/09/26 12:47:00;;;;;;;1.43;1.20;;;12.70;99.90;;;;;;5088094;28;20204;-89
2022/09/26 12:50:07;;;;;;;1.50;1.30;;;12.80;99.90;;;;;;5114011;28;20664;-89
2022/09/26 12:53:00;;;;;;;2.33;1.10;;;12.70;99.90;;;;;;5111819;27;20247;-89
2022/09/26 12:55:37;;;;;;;2.70;1.20;;;12.70;99.90;;;;;;5132449;27;20255;-88
2022/09/26 12:58:24;;;;;;;1.13;1.03;;;12.70;99.90;;;;;;5141003;27;20657;-88
2022/09/26 13:01:14;;;;;;;1.67;1.10;;;12.70;99.90;;;;;;5126689;27;20197;-88
2022/09/26 13:04:03;;;;;;;1.57;1.20;;;12.70;99.90;;;;;;5118864;27;20211;-87
2022/09/26 13:07:02;;;;;;;1.43;1.10;;;12.70;99.90;;;;;;5114864;28;20187;-88
2022/09/26 13:09:54;;;;;;;1.30;1.23;;;12.70;99.90;;;;;;5126573;27;20866;-87
2022/09/26 13:12:39;;;;;;;2.00;1.30;;;12.70;99.90;;;;;;5124469;27;20210;-87
2022/09/26 13:15:19;;;;;;;1.37;1.27;;;12.80;99.90;;;;;;5114411;28;20881;-87
2022/09/26 13:17:51;;;;;;;1.43;1.27;;;12.60;99.90;;;;;;5113755;28;20199;-87
2022/09/26 13:20:26;;;;;;;1.70;1.60;;;12.60;99.90;;;;;;5113674;28;20196;-88
2022/09/26 13:22:58;;;;;;;1.50;1.40;;;12.60;99.90;;;;;;5128609;27;20240;-85
2022/09/26 13:25:33;;;;;;;2.03;1.63;;;12.60;99.90;;;;;;5126022;27;20191;-86
2022/09/26 13:28:05;;;;;;;1.70;1.60;;;12.70;99.90;;;;;;5123758;27;20225;-86
2022/09/26 13:30:36;;;;;;;3.20;1.43;;;12.60;99.90;;;;;;5119013;27;20661;-86
2022/09/26 13:33:07;;;;;;;1.33;1.27;;;12.60;99.90;;;;;;5123173;27;20615;-85
2022/09/26 13:35:40;;;;;;;1.20;1.20;;;12.60;99.90;;;;;;5121643;27;20204;-87